createdAt,value
2017-12-04T00:08:18.332Z,21.00
2017-12-04T00:28:50.528Z,17.97
2017-12-04T00:49:28.122Z,21.20
2017-12-04T01:10:02.476Z,20.00
2017-12-04T01:30:34.983Z,21.37
2017-12-04T01:51:10.251Z,22.75
2017-12-04T02:11:46.165Z,26.25
2017-12-04T02:32:24.116Z,17.43
2017-12-04T02:52:57.910Z,18.83
2017-12-04T03:13:31.033Z,14.35
2017-12-04T03:34:08.147Z,13.57
2017-12-04T03:54:41.575Z,22.33
2017-12-04T04:15:17.768Z,21.50
2017-12-04T04:35:53.967Z,18.73
2017-12-04T04:56:26.163Z,22.87
2017-12-04T05:34:59.110Z,21.73
2017-12-04T05:55:34.625Z,20.07
2017-12-04T06:16:08.421Z,14.27
2017-12-04T06:36:44.270Z,17.42
2017-12-04T06:57:18.296Z,19.17
2017-12-04T07:17:50.245Z,18.30
2017-12-04T07:59:09.697Z,19.03
2017-12-04T08:19:45.282Z,17.77
2017-12-04T08:40:16.247Z,10.37
2017-12-04T09:00:50.285Z,13.03
2017-12-04T09:21:27.715Z,8.93
2017-12-04T09:42:02.983Z,9.17
2017-12-04T10:02:36.106Z,9.27
2017-12-04T10:23:10.457Z,11.63
2017-12-04T10:43:47.572Z,8.80
2017-12-04T11:04:24.093Z,12.10
2017-12-04T11:24:55.966Z,10.30
2017-12-04T11:45:29.394Z,6.87
2017-12-04T12:06:04.729Z,7.30
2017-12-04T12:26:37.791Z,8.13
2017-12-04T12:47:09.682Z,6.93
2017-12-04T13:07:45.261Z,8.03
2017-12-04T13:28:20.601Z,6.87
2017-12-04T13:48:56.421Z,8.90
2017-12-04T14:09:30.766Z,14.37
2017-12-04T14:30:07.297Z,16.83
2017-12-04T14:50:42.236Z,13.27
2017-12-04T15:11:25.848Z,8.10
2017-12-04T15:32:01.691Z,11.47
2017-12-04T15:52:32.968Z,9.40
2017-12-04T16:13:06.395Z,16.60
2017-12-04T16:33:42.729Z,11.20
2017-12-04T16:54:16.636Z,12.27
2017-12-04T17:14:49.760Z,13.70
2017-12-04T17:35:22.266Z,10.33
2017-12-04T17:55:57.761Z,14.87
2017-12-04T18:16:31.577Z,15.83
2017-12-04T18:37:04.699Z,15.70
2017-12-04T18:57:39.240Z,16.10
2017-12-04T19:18:12.175Z,16.70
2017-12-04T19:38:47.456Z,21.33
2017-12-04T19:59:25.485Z,14.33
2017-12-04T20:19:58.265Z,26.77
2017-12-04T20:40:31.114Z,15.23
2017-12-04T21:01:03.316Z,14.90
2017-12-04T21:21:37.768Z,12.50
2017-12-04T21:42:08.638Z,19.23
2017-12-04T22:02:42.987Z,14.57
2017-12-04T22:23:17.395Z,11.90
2017-12-04T22:43:50.460Z,13.97
2017-12-04T23:04:20.509Z,13.93
2017-12-04T23:24:58.043Z,12.57
2017-12-04T23:45:31.974Z,14.10
